createdAt,value
2018-04-09T00:00:47.487Z,6.30
2018-04-09T00:01:47.358Z,6.29
2018-04-09T00:02:47.226Z,6.32
2018-04-09T00:03:47.102Z,6.33
2018-04-09T00:04:47.150Z,6.33
2018-04-09T00:05:46.848Z,6.36
2018-04-09T00:06:46.718Z,6.33
2018-04-09T00:07:46.591Z,6.40
2018-04-09T00:08:46.466Z,6.50
2018-04-09T00:09:46.367Z,6.53
2018-04-09T00:10:46.209Z,6.48
2018-04-09T00:11:46.081Z,6.53
2018-04-09T00:12:45.955Z,6.47
2018-04-09T00:13:45.833Z,6.48
2018-04-09T00:14:45.783Z,6.41
2018-04-09T00:15:45.576Z,6.47
2018-04-09T00:16:45.448Z,6.30
2018-04-09T00:17:45.323Z,6.29
2018-04-09T00:18:45.191Z,6.30
2018-04-09T00:19:45.204Z,6.32
2018-04-09T00:20:44.937Z,6.38
2018-04-09T00:21:44.811Z,6.35
2018-04-09T00:22:44.683Z,6.28
2018-04-09T00:23:44.622Z,6.16
2018-04-09T00:24:44.428Z,6.10
2018-04-09T00:25:44.300Z,6.25
2018-04-09T00:26:44.173Z,6.29
2018-04-09T00:27:44.045Z,6.33
2018-04-09T00:28:44.036Z,6.30
2018-04-09T00:29:43.796Z,6.32
2018-04-09T00:30:43.665Z,6.43
2018-04-09T00:31:43.537Z,6.25
2018-04-09T00:32:43.406Z,6.18
2018-04-09T00:33:43.455Z,6.19
2018-04-09T00:34:43.152Z,6.10
2018-04-09T00:35:43.028Z,6.13
2018-04-09T00:36:42.911Z,6.18
2018-04-09T00:37:42.771Z,6.18
2018-04-09T00:38:42.670Z,6.32
2018-04-09T00:39:42.519Z,6.25
2018-04-09T00:40:42.392Z,6.28
2018-04-09T00:41:42.264Z,6.22
2018-04-09T00:42:42.134Z,6.14
2018-04-09T00:43:42.090Z,6.28
2018-04-09T00:44:41.882Z,6.22
2018-04-09T00:45:41.756Z,6.29
2018-04-09T00:46:41.624Z,6.28
2018-04-09T00:47:41.500Z,6.21
2018-04-09T00:48:41.513Z,6.13
2018-04-09T00:49:41.244Z,6.00
2018-04-09T00:50:41.114Z,6.04
2018-04-09T00:51:40.990Z,6.07
2018-04-09T00:52:40.865Z,6.00
2018-04-09T00:53:40.927Z,6.09
2018-04-09T00:54:40.606Z,6.06
2018-04-09T00:55:40.481Z,6.11
2018-04-09T00:56:40.364Z,6.09
2018-04-09T00:57:40.340Z,6.03
2018-04-09T00:58:40.096Z,6.00
2018-04-09T00:59:39.969Z,5.93
2018-04-09T01:00:39.844Z,5.98
2018-04-09T01:01:39.716Z,5.98
2018-04-09T01:02:39.766Z,5.96
2018-04-09T01:03:39.461Z,6.00
2018-04-09T01:04:39.334Z,6.06
2018-04-09T01:05:39.208Z,6.13
2018-04-09T01:06:39.077Z,6.11
2018-04-09T01:07:38.985Z,6.18
2018-04-09T01:08:38.823Z,6.22
2018-04-09T01:09:38.698Z,6.14
2018-04-09T01:10:38.568Z,6.11
2018-04-09T01:11:38.443Z,6.19
2018-04-09T01:12:38.393Z,6.13
2018-04-09T01:13:38.187Z,6.16
2018-04-09T01:14:38.062Z,6.16
2018-04-09T01:15:37.934Z,6.00
2018-04-09T01:16:37.810Z,6.01
2018-04-09T01:17:37.813Z,5.96
2018-04-09T01:18:37.554Z,5.89
2018-04-09T01:19:37.426Z,5.89
2018-04-09T01:20:37.298Z,5.91
2018-04-09T01:21:37.171Z,5.85
2018-04-09T01:22:37.233Z,5.89
2018-04-09T01:23:36.918Z,5.88
2018-04-09T01:24:36.790Z,5.86
2018-04-09T01:25:36.665Z,5.91
2018-04-09T01:26:36.534Z,5.95
2018-04-09T01:27:36.450Z,5.91
2018-04-09T01:28:36.282Z,5.91
2018-04-09T01:29:36.151Z,5.89
2018-04-09T01:30:36.032Z,5.93
2018-04-09T01:31:35.901Z,5.98
2018-04-09T01:32:35.868Z,5.92
2018-04-09T01:33:35.646Z,5.92
2018-04-09T01:34:35.516Z,5.85
2018-04-09T01:35:35.389Z,5.91
2018-04-09T01:36:35.264Z,5.89
2018-04-09T01:37:35.285Z,5.86
2018-04-09T01:38:35.005Z,5.96
2018-04-09T01:39:34.885Z,6.00
2018-04-09T01:40:34.752Z,5.95
2018-04-09T01:41:34.699Z,5.91
2018-04-09T01:42:34.496Z,5.89
2018-04-09T01:43:34.369Z,5.95
2018-04-09T01:44:34.243Z,6.00
2018-04-09T01:45:34.115Z,5.98
2018-04-09T01:46:34.119Z,5.96
2018-04-09T01:47:33.859Z,5.95
2018-04-09T01:48:33.731Z,5.91
2018-04-09T01:49:33.605Z,5.86
2018-04-09T01:50:33.479Z,5.88
2018-04-09T01:51:33.539Z,5.91
2018-04-09T01:52:33.224Z,5.88
2018-04-09T01:53:33.097Z,5.83
2018-04-09T01:54:32.967Z,5.82
2018-04-09T01:55:32.840Z,5.83
2018-04-09T01:56:32.752Z,5.91
2018-04-09T01:57:32.587Z,5.88
2018-04-09T01:58:32.459Z,5.77
2018-04-09T01:59:32.331Z,5.89
2018-04-09T02:00:32.203Z,5.91
2018-04-09T02:01:32.174Z,5.88
2018-04-09T02:02:31.945Z,5.92
2018-04-09T02:03:31.822Z,5.78
2018-04-09T02:04:31.695Z,5.92
2018-04-09T02:05:31.564Z,5.91
2018-04-09T02:06:31.595Z,5.78
2018-04-09T02:07:31.309Z,5.75
2018-04-09T02:08:31.183Z,5.85
2018-04-09T02:09:31.054Z,5.78
2018-04-09T02:10:30.929Z,5.74
2018-04-09T02:11:31.012Z,5.77
2018-04-09T02:12:30.674Z,5.74
2018-04-09T02:13:30.549Z,5.73
2018-04-09T02:14:30.418Z,5.71
2018-04-09T02:15:30.292Z,5.75
2018-04-09T02:16:30.225Z,5.74
2018-04-09T02:17:30.039Z,5.78
2018-04-09T02:18:29.909Z,5.74
2018-04-09T02:19:29.783Z,5.78
2018-04-09T02:20:29.843Z,5.74
2018-04-09T02:21:29.524Z,5.78
2018-04-09T02:22:29.400Z,5.70
2018-04-09T02:23:29.270Z,5.66
2018-04-09T02:24:29.143Z,5.68
2018-04-09T02:25:29.064Z,5.68
2018-04-09T02:26:28.887Z,5.63
2018-04-09T02:27:28.764Z,5.71
2018-04-09T02:28:28.635Z,5.67
2018-04-09T02:29:28.513Z,5.63
2018-04-09T02:30:28.478Z,5.74
2018-04-09T02:31:28.251Z,5.75
2018-04-09T02:32:28.122Z,5.77
2018-04-09T02:33:27.996Z,5.78
2018-04-09T02:34:27.870Z,5.77
2018-04-09T02:35:27.899Z,5.81
2018-04-09T02:36:27.617Z,5.75
2018-04-09T02:37:27.486Z,5.77
2018-04-09T02:38:27.364Z,5.70
2018-04-09T02:39:27.229Z,5.73
2018-04-09T02:40:27.318Z,5.71
2018-04-09T02:41:26.976Z,5.71
2018-04-09T02:42:26.848Z,5.66
2018-04-09T02:43:26.723Z,5.60
2018-04-09T02:44:26.592Z,5.68
2018-04-09T02:45:26.532Z,5.64
2018-04-09T02:46:26.334Z,5.56
2018-04-09T02:47:26.209Z,5.59
2018-04-09T02:48:26.084Z,5.66
2018-04-09T02:49:25.954Z,5.64
2018-04-09T02:50:25.949Z,5.67
2018-04-09T02:51:25.696Z,5.74
2018-04-09T02:52:25.572Z,5.55
2018-04-09T02:53:25.443Z,5.70
2018-04-09T02:54:25.313Z,5.70
2018-04-09T02:55:25.372Z,5.56
2018-04-09T02:56:25.061Z,5.63
2018-04-09T02:57:24.930Z,5.59
2018-04-09T02:58:24.806Z,5.59
2018-04-09T02:59:24.784Z,5.57
2018-04-09T03:00:24.552Z,5.63
2018-04-09T03:01:24.421Z,5.59
2018-04-09T03:02:24.291Z,5.63
2018-04-09T03:03:24.167Z,5.56
2018-04-09T03:04:24.203Z,5.68
2018-04-09T03:05:23.908Z,5.63
2018-04-09T03:06:23.780Z,5.66
2018-04-09T03:07:23.658Z,5.64
2018-04-09T03:08:23.528Z,5.59
2018-04-09T03:09:23.489Z,5.60
2018-04-09T03:10:23.272Z,5.64
2018-04-09T03:11:23.142Z,5.63
2018-04-09T03:12:23.019Z,5.60
2018-04-09T03:13:22.893Z,5.60
2018-04-09T03:14:22.836Z,5.56
2018-04-09T03:15:22.633Z,5.49
2018-04-09T03:16:22.505Z,5.52
2018-04-09T03:17:22.377Z,5.53
2018-04-09T03:18:22.249Z,5.52
2018-04-09T03:19:22.257Z,5.48
2018-04-09T03:20:21.992Z,5.48
2018-04-09T03:21:21.873Z,5.45
2018-04-09T03:22:21.737Z,5.41
2018-04-09T03:23:21.668Z,5.35
2018-04-09T03:24:21.482Z,5.35
2018-04-09T03:25:21.357Z,5.50
2018-04-09T03:26:21.225Z,5.46
2018-04-09T03:27:21.100Z,5.49
2018-04-09T03:28:21.092Z,5.46
2018-04-09T03:29:20.849Z,5.45
2018-04-09T03:30:20.734Z,5.41
2018-04-09T03:31:20.592Z,5.43
2018-04-09T03:32:20.461Z,5.43
2018-04-09T03:33:20.511Z,5.46
2018-04-09T03:34:20.204Z,5.43
2018-04-09T03:35:20.077Z,5.46
2018-04-09T03:36:19.948Z,5.40
2018-04-09T03:37:19.824Z,5.45
2018-04-09T03:38:19.722Z,5.45
2018-04-09T03:39:19.566Z,5.55
2018-04-09T03:40:19.438Z,5.41
2018-04-09T03:41:19.309Z,5.53
2018-04-09T03:42:19.182Z,5.50
2018-04-09T03:43:19.146Z,5.53
2018-04-09T03:44:18.929Z,5.46
2018-04-09T03:45:18.801Z,5.48
2018-04-09T03:46:18.670Z,5.53
2018-04-09T03:47:18.546Z,5.53
2018-04-09T03:48:18.561Z,5.52
2018-04-09T03:49:18.289Z,5.50
2018-04-09T03:50:18.159Z,5.55
2018-04-09T03:51:18.035Z,5.48
2018-04-09T03:52:17.907Z,5.46
2018-04-09T03:53:17.981Z,5.49
2018-04-09T03:54:17.650Z,5.52
2018-04-09T03:55:17.531Z,5.55
2018-04-09T03:56:17.394Z,5.53
2018-04-09T03:57:17.263Z,5.53
2018-04-09T03:58:17.256Z,5.49
2018-04-09T03:59:17.010Z,5.52
2018-04-09T04:00:16.882Z,5.49
2018-04-09T04:01:16.755Z,5.50
2018-04-09T04:02:16.626Z,5.55
2018-04-09T04:03:16.617Z,5.56
2018-04-09T04:04:16.371Z,5.52
2018-04-09T04:05:16.244Z,5.53
2018-04-09T04:06:16.114Z,5.49
2018-04-09T04:07:16.034Z,5.59
2018-04-09T04:08:15.860Z,5.53
2018-04-09T04:09:15.733Z,5.49
2018-04-09T04:10:15.602Z,5.57
2018-04-09T04:11:15.474Z,5.53
2018-04-09T04:12:15.446Z,5.59
2018-04-09T04:13:15.221Z,5.63
2018-04-09T04:14:15.094Z,5.57
2018-04-09T04:15:14.970Z,5.63
2018-04-09T04:16:14.838Z,5.52
2018-04-09T04:17:14.866Z,5.60
2018-04-09T04:18:14.577Z,5.56
2018-04-09T04:19:14.452Z,5.60
2018-04-09T04:20:14.323Z,5.63
2018-04-09T04:21:14.198Z,5.59
2018-04-09T04:22:14.079Z,5.59
2018-04-09T04:23:13.943Z,5.56
2018-04-09T04:24:13.814Z,5.60
2018-04-09T04:25:13.687Z,5.57
2018-04-09T04:26:13.559Z,5.56
2018-04-09T04:27:13.500Z,5.56
2018-04-09T04:28:13.302Z,5.60
2018-04-09T04:29:13.172Z,5.66
2018-04-09T04:30:13.046Z,5.64
2018-04-09T04:31:13.121Z,5.71
2018-04-09T04:32:12.790Z,5.64
2018-04-09T04:33:12.663Z,5.59
2018-04-09T04:34:12.533Z,5.60
2018-04-09T04:35:12.406Z,5.64
2018-04-09T04:36:12.331Z,5.56
2018-04-09T04:37:12.150Z,5.59
2018-04-09T04:38:12.022Z,5.59
2018-04-09T04:39:11.896Z,5.57
2018-04-09T04:40:11.766Z,5.60
2018-04-09T04:41:11.751Z,5.55
2018-04-09T04:42:11.509Z,5.59
2018-04-09T04:43:11.384Z,5.59
2018-04-09T04:44:11.259Z,5.59
2018-04-09T04:45:11.133Z,5.74
2018-04-09T04:46:11.184Z,5.68
2018-04-09T04:47:10.871Z,5.71
2018-04-09T04:48:10.745Z,5.67
2018-04-09T04:49:10.618Z,5.56
2018-04-09T04:50:10.496Z,5.59
2018-04-09T04:51:10.385Z,5.64
2018-04-09T04:52:10.235Z,5.55
2018-04-09T04:53:10.107Z,5.60
2018-04-09T04:54:09.978Z,5.56
2018-04-09T04:55:09.851Z,5.59
2018-04-09T04:56:09.808Z,5.64
2018-04-09T04:57:09.596Z,5.59
2018-04-09T04:58:09.467Z,5.57
2018-04-09T04:59:09.342Z,5.60
2018-04-09T05:00:09.213Z,5.60
2018-04-09T05:01:09.227Z,5.55
2018-04-09T05:02:08.956Z,5.57
2018-04-09T05:03:08.831Z,5.59
2018-04-09T05:04:08.704Z,5.60
2018-04-09T05:05:08.572Z,5.71
2018-04-09T05:06:08.645Z,5.71
2018-04-09T05:07:08.318Z,5.71
2018-04-09T05:08:08.191Z,5.66
2018-04-09T05:09:08.064Z,5.59
2018-04-09T05:10:07.936Z,5.60
2018-04-09T05:11:07.861Z,5.57
2018-04-09T05:12:07.680Z,5.63
2018-04-09T05:13:07.554Z,5.67
2018-04-09T05:14:07.424Z,5.64
2018-04-09T05:15:07.475Z,5.59
2018-04-09T05:16:07.169Z,5.55
2018-04-09T05:17:07.043Z,5.64
2018-04-09T05:18:06.914Z,5.77
2018-04-09T05:19:06.787Z,5.68
2018-04-09T05:20:06.690Z,5.68
2018-04-09T05:21:06.529Z,5.73
2018-04-09T05:22:06.401Z,5.73
2018-04-09T05:23:06.273Z,5.67
2018-04-09T05:24:06.146Z,5.66
2018-04-09T05:25:06.113Z,5.68
2018-04-09T05:26:05.889Z,5.78
2018-04-09T05:27:05.762Z,5.82
2018-04-09T05:28:05.639Z,5.75
2018-04-09T05:29:05.507Z,5.78
2018-04-09T05:30:05.529Z,5.83
2018-04-09T05:31:05.256Z,5.89
2018-04-09T05:32:05.131Z,5.91
2018-04-09T05:33:05.003Z,5.98
2018-04-09T05:34:04.869Z,5.98
2018-04-09T05:35:04.950Z,5.93
2018-04-09T05:36:04.615Z,5.96
2018-04-09T05:37:04.488Z,5.96
2018-04-09T05:38:04.365Z,5.98
2018-04-09T05:39:04.234Z,5.93
2018-04-09T05:40:04.164Z,6.03
2018-04-09T05:41:03.977Z,6.01
2018-04-09T05:42:03.850Z,6.10
2018-04-09T05:43:03.734Z,5.98
2018-04-09T05:44:03.597Z,6.06
2018-04-09T05:45:03.582Z,6.09
2018-04-09T05:46:03.342Z,6.09
2018-04-09T05:47:03.302Z,6.13
2018-04-09T05:48:03.091Z,6.13
2018-04-09T05:49:02.959Z,6.09
2018-04-09T05:50:03.002Z,6.11
2018-04-09T05:51:02.705Z,6.10
2018-04-09T05:52:02.576Z,6.14
2018-04-09T05:53:02.459Z,6.29
2018-04-09T05:54:02.426Z,6.36
2018-04-09T05:55:02.197Z,6.32
2018-04-09T05:56:02.068Z,6.32
2018-04-09T05:57:01.938Z,6.35
2018-04-09T05:58:01.816Z,6.32
2018-04-09T05:59:01.842Z,6.28
2018-04-09T06:00:01.557Z,6.33
2018-04-09T06:01:01.433Z,6.46
2018-04-09T06:02:01.303Z,6.51
2018-04-09T06:03:01.181Z,6.51
2018-04-09T06:04:01.254Z,6.51
2018-04-09T06:05:00.943Z,6.56
2018-04-09T06:06:00.795Z,6.56
2018-04-09T06:07:00.673Z,6.65
2018-04-09T06:08:00.542Z,6.56
2018-04-09T06:09:00.470Z,6.56
2018-04-09T06:10:00.286Z,6.58
2018-04-09T06:11:00.163Z,6.62
2018-04-09T06:12:00.033Z,6.62
2018-04-09T06:12:59.905Z,6.71
2018-04-09T06:13:59.886Z,6.79
2018-04-09T06:14:59.654Z,6.76
2018-04-09T06:15:59.578Z,6.76
2018-04-09T06:16:59.398Z,6.80
2018-04-09T06:17:59.270Z,6.90
2018-04-09T06:18:59.307Z,7.01
2018-04-09T06:19:59.018Z,7.04
2018-04-09T06:20:58.895Z,7.20
2018-04-09T06:21:58.765Z,7.24
2018-04-09T06:22:58.637Z,7.22
2018-04-09T06:23:58.727Z,7.37
2018-04-09T06:24:58.384Z,7.44
2018-04-09T06:25:58.263Z,7.34
2018-04-09T06:26:58.134Z,7.40
2018-04-09T06:27:58.007Z,7.23
2018-04-09T06:28:57.941Z,7.27
2018-04-09T06:29:57.755Z,7.31
2018-04-09T06:30:57.627Z,7.53
2018-04-09T06:31:57.536Z,7.72
2018-04-09T06:32:57.372Z,7.84
2018-04-09T06:33:57.360Z,7.81
2018-04-09T06:34:57.121Z,7.74
2018-04-09T06:35:56.996Z,7.78
2018-04-09T06:36:56.870Z,7.85
2018-04-09T06:37:56.773Z,7.89
2018-04-09T06:38:56.618Z,7.89
2018-04-09T06:39:56.491Z,7.96
2018-04-09T06:40:56.365Z,7.93
2018-04-09T06:41:56.242Z,7.93
2018-04-09T06:42:56.194Z,7.89
2018-04-09T06:43:55.982Z,7.87
2018-04-09T06:44:55.858Z,7.79
2018-04-09T06:45:55.732Z,7.77
2018-04-09T06:46:55.606Z,7.72
2018-04-09T06:47:55.614Z,7.67
2018-04-09T06:48:55.356Z,7.62
2018-04-09T06:49:55.237Z,7.67
2018-04-09T06:50:55.099Z,7.63
2018-04-09T06:51:55.028Z,7.85
2018-04-09T06:52:55.038Z,7.97
2018-04-09T06:53:54.766Z,8.03
2018-04-09T06:54:54.644Z,8.10
2018-04-09T06:55:54.490Z,8.21
2018-04-09T06:56:54.365Z,8.12
2018-04-09T06:57:54.502Z,8.14
2018-04-09T06:58:54.111Z,8.12
2018-04-09T06:59:54.000Z,8.20
2018-04-09T07:00:53.856Z,8.29
2018-04-09T07:01:53.748Z,8.25
2018-04-09T07:02:53.870Z,8.30
2018-04-09T07:03:53.461Z,8.42
2018-04-09T07:04:53.336Z,8.40
2018-04-09T07:05:53.211Z,8.45
2018-04-09T07:06:53.087Z,8.62
2018-04-09T07:07:53.086Z,8.60
2018-04-09T07:08:52.833Z,8.65
2018-04-09T07:09:52.707Z,8.73
2018-04-09T07:10:52.582Z,8.76
2018-04-09T07:11:52.458Z,8.83
2018-04-09T07:12:52.510Z,8.96
2018-04-09T07:13:52.207Z,9.05
2018-04-09T07:14:52.080Z,9.06
2018-04-09T07:15:51.999Z,9.16
2018-04-09T07:16:51.833Z,9.31
2018-04-09T07:17:51.721Z,9.28
2018-04-09T07:18:51.580Z,9.34
2018-04-09T07:19:51.456Z,9.40
2018-04-09T07:20:51.332Z,9.42
2018-04-09T07:21:51.341Z,9.46
2018-04-09T07:22:51.079Z,9.61
2018-04-09T07:23:50.956Z,9.66
2018-04-09T07:24:50.830Z,9.71
2018-04-09T07:25:50.706Z,9.78
2018-04-09T07:26:50.761Z,9.78
2018-04-09T07:27:50.460Z,9.79
2018-04-09T07:28:50.335Z,9.76
2018-04-09T07:29:50.210Z,9.89
2018-04-09T07:30:50.087Z,9.97
2018-04-09T07:31:49.976Z,10.01
2018-04-09T07:32:49.835Z,10.06
2018-04-09T07:33:49.713Z,10.06
2018-04-09T07:34:49.588Z,10.03
2018-04-09T07:35:49.464Z,9.99
2018-04-09T07:36:49.392Z,9.89
2018-04-09T07:37:49.214Z,9.81
2018-04-09T07:38:49.092Z,9.89
2018-04-09T07:39:48.968Z,9.85
2018-04-09T07:40:48.844Z,9.81
2018-04-09T07:41:48.817Z,9.93
2018-04-09T07:42:48.594Z,9.96
2018-04-09T07:43:48.471Z,10.07
2018-04-09T07:44:48.346Z,10.09
2018-04-09T07:45:48.222Z,10.04
2018-04-09T07:46:48.228Z,10.03
2018-04-09T07:47:47.974Z,10.03
2018-04-09T07:48:47.849Z,10.04
2018-04-09T07:49:47.728Z,10.18
2018-04-09T07:50:47.604Z,10.14
2018-04-09T07:51:47.701Z,10.19
2018-04-09T07:52:47.358Z,10.04
2018-04-09T07:53:47.230Z,9.85
2018-04-09T07:54:47.108Z,9.89
2018-04-09T07:55:46.983Z,9.79
2018-04-09T07:56:47.072Z,9.75
2018-04-09T07:57:46.737Z,9.71
2018-04-09T07:58:46.610Z,9.73
2018-04-09T07:59:46.491Z,9.78
2018-04-09T08:00:46.483Z,9.86
2018-04-09T08:01:46.239Z,9.97
2018-04-09T08:02:46.115Z,10.09
2018-04-09T08:03:45.992Z,10.17
2018-04-09T08:04:45.866Z,10.15
2018-04-09T08:05:45.900Z,10.26
2018-04-09T08:06:45.619Z,10.30
2018-04-09T08:07:45.496Z,10.17
2018-04-09T08:08:45.378Z,9.85
2018-04-09T08:09:45.247Z,9.99
2018-04-09T08:10:45.323Z,10.04
2018-04-09T08:11:45.002Z,9.96
2018-04-09T08:12:44.879Z,9.99
2018-04-09T08:13:44.754Z,10.03
2018-04-09T08:14:44.631Z,10.00
2018-04-09T08:15:44.541Z,10.12
2018-04-09T08:16:44.384Z,10.26
2018-04-09T08:17:44.258Z,10.33
2018-04-09T08:18:44.135Z,10.42
2018-04-09T08:19:44.009Z,10.39
2018-04-09T08:20:43.956Z,10.22
2018-04-09T08:21:43.762Z,10.19
2018-04-09T08:22:43.639Z,10.17
2018-04-09T08:23:43.517Z,10.18
2018-04-09T08:24:43.394Z,10.03
2018-04-09T08:25:43.373Z,10.04
2018-04-09T08:26:43.143Z,10.12
2018-04-09T08:27:43.022Z,10.03
2018-04-09T08:28:42.900Z,10.12
2018-04-09T08:29:42.774Z,10.19
2018-04-09T08:30:42.792Z,10.19
2018-04-09T08:31:42.523Z,10.32
2018-04-09T08:32:42.400Z,10.51
2018-04-09T08:33:42.277Z,10.60
2018-04-09T08:34:42.206Z,10.71
2018-04-09T08:35:42.033Z,10.81
2018-04-09T08:36:41.910Z,10.84
2018-04-09T08:37:41.784Z,10.81
2018-04-09T08:38:41.660Z,11.03
2018-04-09T08:39:41.624Z,11.07
2018-04-09T08:40:41.411Z,11.14
2018-04-09T08:41:41.293Z,11.20
2018-04-09T08:42:41.165Z,11.21
2018-04-09T08:43:41.042Z,11.36
2018-04-09T08:44:41.043Z,11.34
2018-04-09T08:45:40.799Z,11.31
2018-04-09T08:46:40.679Z,11.31
2018-04-09T08:47:40.550Z,11.35
2018-04-09T08:48:40.428Z,11.47
2018-04-09T08:49:40.463Z,11.53
2018-04-09T08:50:40.182Z,11.52
2018-04-09T08:51:40.060Z,11.56
2018-04-09T08:52:39.937Z,11.65
2018-04-09T08:53:39.853Z,11.71
2018-04-09T08:54:39.889Z,11.72
2018-04-09T08:55:39.599Z,11.70
2018-04-09T08:56:39.447Z,11.70
2018-04-09T08:57:39.320Z,11.80
2018-04-09T08:58:39.201Z,11.64
2018-04-09T08:59:39.098Z,11.56
2018-04-09T09:00:38.956Z,11.52
2018-04-09T09:01:38.836Z,11.57
2018-04-09T09:02:38.710Z,11.39
2018-04-09T09:03:38.715Z,11.43
2018-04-09T09:04:38.462Z,11.46
2018-04-09T09:05:38.340Z,11.43
2018-04-09T09:06:38.223Z,11.47
2018-04-09T09:07:38.097Z,11.61
2018-04-09T09:08:38.134Z,11.61
2018-04-09T09:09:37.852Z,11.65
2018-04-09T09:10:37.729Z,11.54
2018-04-09T09:11:37.607Z,11.56
2018-04-09T09:12:37.485Z,11.54
2018-04-09T09:13:37.554Z,11.54
2018-04-09T09:14:37.236Z,11.41
2018-04-09T09:15:37.116Z,11.47
2018-04-09T09:16:36.995Z,11.41
2018-04-09T09:17:36.871Z,11.47
2018-04-09T09:18:36.772Z,11.46
2018-04-09T09:19:36.627Z,11.54
2018-04-09T09:20:36.506Z,11.62
2018-04-09T09:21:36.383Z,11.62
2018-04-09T09:22:36.260Z,11.61
2018-04-09T09:23:36.188Z,11.54
2018-04-09T09:24:36.012Z,11.65
2018-04-09T09:25:35.894Z,11.64
2018-04-09T09:26:35.772Z,11.78
2018-04-09T09:27:35.650Z,11.93
2018-04-09T09:28:35.610Z,11.99
2018-04-09T09:29:35.404Z,12.11
2018-04-09T09:30:35.280Z,12.15
2018-04-09T09:31:35.159Z,12.21
2018-04-09T09:32:35.036Z,12.38
2018-04-09T09:33:35.028Z,12.20
2018-04-09T09:34:34.791Z,12.42
2018-04-09T09:35:34.672Z,12.42
2018-04-09T09:36:34.545Z,12.59
2018-04-09T09:37:34.433Z,12.70
2018-04-09T09:38:34.446Z,12.75
2018-04-09T09:39:34.183Z,12.79
2018-04-09T09:40:34.061Z,12.78
2018-04-09T09:41:33.937Z,12.74
2018-04-09T09:42:33.861Z,12.21
2018-04-09T09:43:33.699Z,11.99
2018-04-09T09:44:33.575Z,11.80
2018-04-09T09:45:33.448Z,11.75
2018-04-09T09:46:33.333Z,11.62
2018-04-09T09:47:33.284Z,11.77
2018-04-09T09:48:33.088Z,12.01
2018-04-09T09:49:32.962Z,11.99
2018-04-09T09:50:32.846Z,11.99
2018-04-09T09:51:32.720Z,12.16
2018-04-09T09:52:32.698Z,12.05
2018-04-09T09:53:32.474Z,11.87
2018-04-09T09:54:32.353Z,11.96
2018-04-09T09:55:32.230Z,12.02
2018-04-09T09:56:32.108Z,12.13
2018-04-09T09:57:32.118Z,12.12
2018-04-09T09:58:31.861Z,11.89
2018-04-09T09:59:31.741Z,11.61
2018-04-09T10:00:31.620Z,11.39
2018-04-09T10:01:31.497Z,11.41
2018-04-09T10:02:31.536Z,11.52
2018-04-09T10:03:31.255Z,11.43
2018-04-09T10:04:31.132Z,11.35
2018-04-09T10:05:31.007Z,11.47
2018-04-09T10:06:30.950Z,11.38
2018-04-09T10:07:30.763Z,11.32
2018-04-09T10:08:30.642Z,11.07
2018-04-09T10:09:30.522Z,10.81
2018-04-09T10:10:30.402Z,10.81
2018-04-09T10:11:30.386Z,10.80
2018-04-09T10:12:30.153Z,10.81
2018-04-09T10:13:30.033Z,10.99
2018-04-09T10:14:29.905Z,11.01
2018-04-09T10:15:29.784Z,11.07
2018-04-09T10:16:29.792Z,11.09
2018-04-09T10:17:29.535Z,11.17
2018-04-09T10:18:29.413Z,11.24
2018-04-09T10:19:29.290Z,11.14
2018-04-09T10:20:29.170Z,11.32
2018-04-09T10:21:29.206Z,11.17
2018-04-09T10:22:28.923Z,11.10
2018-04-09T10:23:28.798Z,11.14
2018-04-09T10:24:28.674Z,11.03
2018-04-09T10:25:28.554Z,11.03
2018-04-09T10:26:28.627Z,10.96
2018-04-09T10:27:28.306Z,11.07
2018-04-09T10:28:28.190Z,11.07
2018-04-09T10:29:28.058Z,11.02
2018-04-09T10:30:27.935Z,11.14
2018-04-09T10:31:27.844Z,11.19
2018-04-09T10:32:27.690Z,11.17
2018-04-09T10:33:27.565Z,11.32
2018-04-09T10:34:27.457Z,11.24
2018-04-09T10:35:27.318Z,11.24
2018-04-09T10:36:27.260Z,11.31
2018-04-09T10:37:27.068Z,11.43
2018-04-09T10:38:26.946Z,11.50
2018-04-09T10:39:26.822Z,11.65
2018-04-09T10:40:26.701Z,11.67
2018-04-09T10:41:26.684Z,11.56
2018-04-09T10:42:26.453Z,11.64
2018-04-09T10:43:26.331Z,11.72
2018-04-09T10:44:26.203Z,11.75
2018-04-09T10:45:26.094Z,11.82
2018-04-09T10:46:26.295Z,11.78
2018-04-09T10:47:25.836Z,11.70
2018-04-09T10:48:25.717Z,11.56
2018-04-09T10:49:25.589Z,11.53
2018-04-09T10:50:25.514Z,11.36
2018-04-09T10:51:25.344Z,11.39
2018-04-09T10:52:25.220Z,11.24
2018-04-09T10:53:25.096Z,11.10
2018-04-09T10:54:24.974Z,11.06
2018-04-09T10:55:24.934Z,11.01
2018-04-09T10:56:24.728Z,10.91
2018-04-09T10:57:24.602Z,11.02
2018-04-09T10:58:24.480Z,10.92
2018-04-09T10:59:24.358Z,10.89
2018-04-09T11:00:24.353Z,10.81
2018-04-09T11:01:24.110Z,10.80
2018-04-09T11:02:23.985Z,10.80
2018-04-09T11:03:23.864Z,10.66
2018-04-09T11:04:23.742Z,10.74
2018-04-09T11:05:23.771Z,10.74
2018-04-09T11:06:23.494Z,10.78
2018-04-09T11:07:23.368Z,11.03
2018-04-09T11:08:23.245Z,11.13
2018-04-09T11:09:23.130Z,11.20
2018-04-09T11:10:23.189Z,11.29
2018-04-09T11:11:22.874Z,11.43
2018-04-09T11:12:22.753Z,11.49
2018-04-09T11:13:22.628Z,11.67
2018-04-09T11:14:22.516Z,11.65
2018-04-09T11:15:22.424Z,11.80
2018-04-09T11:16:22.268Z,11.80
2018-04-09T11:17:22.138Z,11.86
2018-04-09T11:18:22.017Z,12.06
2018-04-09T11:19:21.890Z,12.06
2018-04-09T11:20:21.825Z,12.04
2018-04-09T11:21:21.644Z,11.96
2018-04-09T11:22:21.521Z,12.11
2018-04-09T11:23:21.398Z,12.12
2018-04-09T11:24:21.443Z,12.21
2018-04-09T11:25:21.189Z,12.20
2018-04-09T11:26:21.031Z,12.23
2018-04-09T11:27:20.907Z,12.31
2018-04-09T11:28:20.785Z,12.33
2018-04-09T11:29:20.864Z,12.37
2018-04-09T11:30:20.540Z,12.31
2018-04-09T11:31:20.421Z,12.39
2018-04-09T11:32:20.298Z,12.39
2018-04-09T11:33:20.174Z,12.54
2018-04-09T11:34:20.082Z,12.46
2018-04-09T11:35:19.929Z,12.66
2018-04-09T11:36:19.804Z,12.70
2018-04-09T11:37:19.693Z,12.81
2018-04-09T11:38:19.565Z,12.89
2018-04-09T11:39:19.511Z,12.88
2018-04-09T11:40:19.322Z,13.04
2018-04-09T11:41:19.196Z,13.06
2018-04-09T11:42:19.078Z,13.04
2018-04-09T11:43:18.955Z,12.87
2018-04-09T11:44:18.934Z,12.89
2018-04-09T11:45:18.713Z,13.02
2018-04-09T11:46:18.588Z,13.21
2018-04-09T11:47:18.468Z,13.24
2018-04-09T11:48:18.538Z,13.33
2018-04-09T11:49:18.221Z,13.41
2018-04-09T11:50:18.104Z,13.56
2018-04-09T11:51:17.980Z,13.61
2018-04-09T11:52:17.862Z,13.59
2018-04-09T11:53:17.756Z,13.73
2018-04-09T11:54:17.618Z,13.79
2018-04-09T11:55:17.501Z,13.92
2018-04-09T11:56:17.375Z,13.91
2018-04-09T11:57:17.252Z,13.73
2018-04-09T11:58:17.170Z,13.79
2018-04-09T11:59:17.013Z,13.83
2018-04-09T12:00:16.890Z,13.67
2018-04-09T12:01:16.769Z,13.65
2018-04-09T12:02:16.659Z,13.74
2018-04-09T12:03:16.590Z,13.88
2018-04-09T12:04:16.407Z,13.98
2018-04-09T12:05:16.284Z,14.20
2018-04-09T12:06:16.162Z,14.19
2018-04-09T12:07:16.043Z,14.52
2018-04-09T12:08:16.008Z,14.57
2018-04-09T12:09:15.800Z,14.83
2018-04-09T12:10:15.683Z,14.99
2018-04-09T12:11:15.567Z,15.17
2018-04-09T12:12:15.442Z,15.35
2018-04-09T12:13:15.429Z,15.61
2018-04-09T12:14:15.201Z,15.78
2018-04-09T12:15:15.080Z,15.72
2018-04-09T12:16:14.959Z,15.61
2018-04-09T12:17:14.839Z,15.54
2018-04-09T12:18:14.848Z,15.28
2018-04-09T12:19:14.601Z,15.19
2018-04-09T12:20:14.482Z,15.48
2018-04-09T12:21:14.363Z,15.97
2018-04-09T12:22:14.241Z,16.42
2018-04-09T12:23:14.267Z,17.00
2018-04-09T12:24:14.003Z,17.36
2018-04-09T12:25:13.886Z,17.51
2018-04-09T12:26:13.762Z,17.35
2018-04-09T12:27:13.681Z,17.07
2018-04-09T12:28:13.526Z,16.78
2018-04-09T12:29:13.407Z,16.75
2018-04-09T12:30:13.289Z,16.37
2018-04-09T12:31:13.169Z,16.37
2018-04-09T12:32:13.104Z,16.34
2018-04-09T12:33:12.935Z,16.48
2018-04-09T12:34:12.840Z,16.71
2018-04-09T12:35:12.693Z,17.28
2018-04-09T12:36:12.574Z,17.51
2018-04-09T12:37:12.526Z,17.62
2018-04-09T12:38:12.336Z,17.55
2018-04-09T12:39:12.220Z,17.03
2018-04-09T12:40:12.104Z,16.63
2018-04-09T12:41:11.981Z,16.71
2018-04-09T12:42:11.940Z,16.70
2018-04-09T12:43:11.743Z,16.70
2018-04-09T12:44:11.631Z,16.60
2018-04-09T12:45:11.505Z,16.68
2018-04-09T12:46:11.390Z,16.80
2018-04-09T12:47:11.359Z,16.74
2018-04-09T12:48:11.153Z,16.81
2018-04-09T12:49:11.033Z,16.41
2018-04-09T12:50:10.915Z,16.35
2018-04-09T12:51:10.795Z,16.50
2018-04-09T12:52:10.778Z,16.15
2018-04-09T12:53:10.559Z,16.23
2018-04-09T12:54:10.438Z,16.20
2018-04-09T12:55:10.322Z,16.22
2018-04-09T12:56:10.203Z,16.11
2018-04-09T12:57:10.198Z,16.23
2018-04-09T12:58:09.960Z,16.26
2018-04-09T12:59:09.840Z,15.72
2018-04-09T13:00:09.724Z,15.63
2018-04-09T13:01:30.704Z,15.76
2018-04-09T13:02:09.486Z,15.60
2018-04-09T13:03:09.369Z,15.52
2018-04-09T13:04:09.246Z,15.49
2018-04-09T13:05:09.139Z,15.38
2018-04-09T13:06:09.010Z,15.19